createdAt,value
2019-03-27T00:00:58.019Z,9.83
2019-03-27T00:06:00.029Z,12.23
2019-03-27T00:11:02.037Z,8.37
2019-03-27T00:16:04.121Z,10.40
2019-03-27T00:21:06.302Z,11.80
2019-03-27T00:26:08.393Z,7.23
2019-03-27T00:31:11.943Z,8.00
2019-03-27T00:36:14.197Z,6.97
2019-03-27T00:41:16.189Z,7.20
2019-03-27T00:46:19.322Z,11.20
2019-03-27T00:51:21.469Z,9.23
2019-03-27T00:56:23.646Z,9.03
2019-03-27T01:01:25.743Z,9.80
2019-03-27T01:06:27.822Z,8.67
2019-03-27T01:11:29.828Z,10.33
2019-03-27T01:16:31.888Z,9.40
2019-03-27T01:21:33.872Z,12.03
2019-03-27T01:26:35.949Z,10.50
2019-03-27T01:31:38.030Z,12.07
2019-03-27T01:36:40.120Z,8.60
2019-03-27T01:41:42.105Z,8.70
2019-03-27T01:46:44.296Z,8.63
2019-03-27T01:51:46.466Z,10.70
2019-03-27T01:56:48.563Z,7.60
2019-03-27T02:01:50.657Z,8.80
2019-03-27T02:06:52.722Z,8.47
2019-03-27T02:11:54.729Z,9.80
2019-03-27T02:16:56.804Z,8.67
2019-03-27T02:21:58.878Z,8.77
2019-03-27T02:27:00.971Z,8.23
2019-03-27T02:32:03.049Z,11.80
2019-03-27T02:37:05.137Z,10.80
2019-03-27T02:42:07.133Z,7.47
2019-03-27T02:47:09.122Z,8.93
2019-03-27T02:52:11.116Z,6.87
2019-03-27T02:57:13.155Z,8.50
2019-03-27T03:02:15.250Z,10.60
2019-03-27T03:07:17.323Z,7.83
2019-03-27T03:12:19.335Z,10.30
2019-03-27T03:17:21.405Z,10.60
2019-03-27T03:22:23.385Z,5.87
2019-03-27T03:27:25.454Z,10.07
2019-03-27T03:32:27.551Z,10.93
2019-03-27T03:37:29.621Z,11.30
2019-03-27T03:42:31.629Z,11.03
2019-03-27T03:47:33.618Z,6.83
2019-03-27T03:52:35.677Z,9.77
2019-03-27T03:57:37.772Z,10.23
2019-03-27T04:02:39.939Z,8.77
2019-03-27T04:07:41.939Z,10.87
2019-03-27T04:12:44.006Z,9.60
2019-03-27T04:17:46.084Z,9.10
2019-03-27T04:22:48.175Z,8.17
2019-03-27T04:27:50.170Z,12.57
2019-03-27T04:32:52.236Z,11.60
2019-03-27T04:37:54.221Z,7.50
2019-03-27T04:42:56.204Z,9.00
2019-03-27T04:47:58.200Z,11.30
2019-03-27T04:53:00.270Z,15.40
2019-03-27T04:58:02.254Z,13.90
2019-03-27T05:03:04.661Z,13.87
2019-03-27T05:08:06.667Z,11.70
2019-03-27T05:13:08.706Z,17.37
2019-03-27T05:18:10.696Z,14.97
2019-03-27T05:23:12.766Z,12.83
2019-03-27T05:28:14.758Z,17.83
2019-03-27T05:33:16.835Z,15.00
2019-03-27T05:38:18.822Z,17.57
2019-03-27T05:43:20.906Z,11.83
2019-03-27T05:48:22.890Z,14.27
2019-03-27T05:53:24.952Z,12.83
2019-03-27T05:58:26.944Z,17.53
2019-03-27T06:03:29.032Z,17.40
2019-03-27T06:08:31.044Z,14.00
2019-03-27T06:13:33.100Z,14.30
2019-03-27T06:18:35.083Z,18.57
2019-03-27T06:23:37.158Z,14.60
2019-03-27T06:28:39.162Z,12.03
2019-03-27T06:33:41.224Z,12.60
2019-03-27T06:38:43.309Z,13.27
2019-03-27T06:43:45.396Z,9.63
2019-03-27T06:48:59.224Z,11.83
2019-03-27T06:54:01.234Z,14.60
2019-03-27T06:59:08.042Z,10.17
2019-03-27T07:04:11.067Z,15.50
2019-03-27T07:09:14.740Z,12.00
2019-03-27T07:14:16.834Z,12.30
2019-03-27T07:19:18.817Z,26.67
2019-03-27T07:24:20.921Z,13.20
2019-03-27T07:29:24.395Z,13.53
2019-03-27T07:34:26.397Z,11.27
2019-03-27T07:39:28.389Z,11.57
2019-03-27T07:44:30.472Z,14.83
2019-03-27T07:49:32.457Z,10.60
2019-03-27T07:54:34.536Z,8.53
2019-03-27T07:59:36.521Z,10.80
2019-03-27T08:04:38.607Z,8.37
2019-03-27T08:09:40.676Z,9.47
2019-03-27T08:14:42.684Z,10.30
2019-03-27T08:19:44.757Z,7.10
2019-03-27T08:24:46.744Z,7.80
2019-03-27T08:29:48.813Z,6.73
2019-03-27T08:34:50.805Z,5.70
2019-03-27T08:39:52.884Z,10.43
2019-03-27T08:44:54.965Z,3.83
2019-03-27T08:49:57.049Z,6.40
2019-03-27T08:54:59.045Z,6.43
2019-03-27T09:00:02.713Z,6.57
2019-03-27T09:05:05.106Z,4.83
2019-03-27T09:10:07.655Z,1.47
2019-03-27T09:15:09.870Z,5.23
2019-03-27T09:20:12.029Z,7.17
2019-03-27T09:25:14.132Z,4.13
2019-03-27T09:30:16.316Z,9.30
2019-03-27T09:35:18.354Z,5.43
2019-03-27T09:40:20.374Z,6.77
2019-03-27T09:45:22.458Z,7.03
2019-03-27T09:50:24.542Z,5.00
2019-03-27T09:55:26.569Z,4.60
2019-03-27T10:00:52.345Z,6.27
2019-03-27T10:05:54.358Z,5.17
2019-03-27T10:10:56.433Z,7.37
2019-03-27T10:15:58.565Z,4.23
2019-03-27T10:21:00.594Z,6.23
2019-03-27T10:26:02.823Z,5.00
2019-03-27T10:31:04.967Z,3.33
2019-03-27T10:36:07.063Z,2.00
2019-03-27T10:41:09.138Z,2.20
2019-03-27T10:46:11.287Z,2.93
2019-03-27T10:51:13.535Z,1.97
2019-03-27T10:56:18.480Z,2.97
2019-03-27T11:01:22.025Z,1.87
2019-03-27T11:06:24.280Z,2.53
2019-03-27T11:11:26.400Z,2.57
2019-03-27T11:16:28.456Z,3.17
2019-03-27T11:21:30.560Z,1.77
2019-03-27T11:26:32.624Z,3.53
2019-03-27T11:31:34.752Z,2.80
2019-03-27T11:36:36.777Z,2.60
2019-03-27T11:41:38.894Z,1.37
2019-03-27T11:46:40.915Z,3.07
2019-03-27T11:51:42.962Z,2.50
2019-03-27T11:56:44.994Z,3.13
2019-03-27T12:01:47.030Z,2.40
2019-03-27T12:06:49.084Z,4.03
2019-03-27T12:11:51.130Z,1.57
2019-03-27T12:16:53.258Z,9.77
2019-03-27T12:21:55.280Z,1.93
2019-03-27T12:26:57.422Z,2.60
2019-03-27T12:31:59.462Z,2.97
2019-03-27T12:37:01.586Z,3.17
2019-03-27T12:42:03.622Z,2.20
2019-03-27T12:47:05.770Z,3.13
2019-03-27T12:52:07.786Z,2.67
2019-03-27T12:57:09.923Z,2.63
2019-03-27T13:02:11.958Z,3.33
2019-03-27T13:07:14.096Z,1.73
2019-03-27T13:12:16.150Z,2.57
2019-03-27T13:17:18.250Z,1.80
2019-03-27T13:22:20.290Z,2.00
2019-03-27T13:27:22.417Z,2.83
2019-03-27T13:32:24.437Z,0.27
2019-03-27T13:37:26.480Z,4.27
2019-03-27T13:42:28.501Z,2.53
2019-03-27T13:47:31.676Z,2.40
2019-03-27T13:52:33.698Z,3.13
2019-03-27T13:57:35.750Z,4.87
2019-03-27T14:02:37.781Z,2.43
2019-03-27T14:07:40.022Z,3.07
2019-03-27T14:12:42.054Z,3.13
2019-03-27T14:17:44.180Z,4.00
2019-03-27T14:22:46.266Z,2.30
2019-03-27T14:27:48.344Z,2.57
2019-03-27T14:32:50.404Z,3.97
2019-03-27T14:37:52.524Z,3.10
2019-03-27T14:42:54.560Z,3.97
2019-03-27T14:47:56.678Z,4.60
2019-03-27T14:52:58.706Z,4.30
2019-03-27T14:58:00.816Z,3.93
2019-03-27T15:03:02.909Z,5.60
2019-03-27T15:08:05.209Z,4.33
2019-03-27T15:13:07.339Z,4.10
2019-03-27T15:18:09.460Z,5.87
2019-03-27T15:23:11.788Z,6.47
2019-03-27T15:28:13.887Z,8.23
2019-03-27T15:33:15.956Z,4.83
2019-03-27T15:38:18.048Z,5.70
2019-03-27T15:43:20.182Z,9.17
2019-03-27T15:48:23.281Z,5.43
2019-03-27T15:53:25.368Z,3.63
2019-03-27T15:58:28.570Z,6.83
2019-03-27T16:03:30.658Z,6.57
2019-03-27T16:08:32.770Z,5.10
2019-03-27T16:13:34.940Z,5.67
2019-03-27T16:18:37.050Z,10.83
2019-03-27T16:23:41.334Z,6.77
2019-03-27T16:28:43.448Z,7.57
2019-03-27T16:33:45.649Z,4.97
2019-03-27T16:38:47.737Z,7.60
2019-03-27T16:43:49.903Z,6.73
2019-03-27T16:48:52.021Z,7.87
2019-03-27T16:53:55.284Z,8.40
2019-03-27T16:58:57.390Z,5.17
2019-03-27T17:03:59.586Z,4.93
2019-03-27T17:09:02.000Z,8.97
2019-03-27T17:14:04.204Z,6.60
2019-03-27T17:19:06.312Z,5.83
2019-03-27T17:24:08.432Z,6.93
2019-03-27T17:29:10.618Z,9.27
2019-03-27T17:34:12.792Z,10.50
2019-03-27T17:39:14.928Z,6.37
2019-03-27T17:44:17.075Z,11.00
2019-03-27T17:49:19.268Z,9.67
2019-03-27T17:54:21.599Z,9.30
2019-03-27T17:59:23.666Z,9.00
2019-03-27T18:04:25.816Z,12.40
2019-03-27T18:09:28.009Z,7.70
2019-03-27T18:14:30.166Z,12.03
2019-03-27T18:19:32.266Z,9.53
2019-03-27T18:24:34.414Z,11.47
2019-03-27T18:29:36.506Z,12.97
2019-03-27T18:34:38.590Z,18.30
2019-03-27T18:39:40.678Z,12.70
2019-03-27T18:44:42.846Z,13.53
2019-03-27T18:49:50.472Z,12.17
2019-03-27T18:54:52.564Z,12.93
2019-03-27T18:59:54.654Z,15.07
2019-03-27T19:04:56.756Z,15.17
2019-03-27T19:09:58.852Z,15.50
2019-03-27T19:15:01.133Z,14.83
2019-03-27T19:20:05.593Z,13.10
2019-03-27T19:25:07.606Z,16.23
2019-03-27T19:30:11.822Z,17.03
2019-03-27T19:35:17.554Z,14.40
2019-03-27T19:40:19.572Z,13.97
2019-03-27T19:45:23.839Z,17.23
2019-03-27T19:50:25.868Z,18.73
2019-03-27T19:55:28.290Z,20.13
2019-03-27T20:00:30.326Z,21.37
2019-03-27T20:05:32.403Z,21.30
2019-03-27T20:10:34.486Z,20.77
2019-03-27T20:15:36.574Z,11.00
2019-03-27T20:20:38.654Z,21.67
2019-03-27T20:25:40.676Z,16.90
2019-03-27T20:30:42.720Z,12.37
2019-03-27T20:35:44.726Z,21.03
2019-03-27T20:40:46.782Z,14.40
2019-03-27T20:45:48.782Z,20.20
2019-03-27T20:50:50.860Z,18.90
2019-03-27T20:55:52.924Z,20.13
2019-03-27T21:00:55.014Z,11.93
2019-03-27T21:05:57.024Z,22.37
2019-03-27T21:10:59.072Z,24.10
2019-03-27T21:16:01.156Z,20.33
2019-03-27T21:21:03.270Z,11.33
2019-03-27T21:26:06.080Z,20.80
2019-03-27T21:31:08.180Z,15.97
2019-03-27T21:36:11.260Z,12.27
2019-03-27T21:41:13.380Z,20.47
2019-03-27T21:46:15.982Z,12.97
2019-03-27T21:51:17.992Z,14.30
2019-03-27T21:56:24.538Z,14.33
2019-03-27T22:01:26.859Z,14.63
2019-03-27T22:06:29.140Z,20.50
2019-03-27T22:11:31.254Z,23.57
2019-03-27T22:16:36.360Z,16.10
2019-03-27T22:21:42.718Z,25.80
2019-03-27T22:26:45.919Z,25.87
2019-03-27T22:31:59.902Z,20.97
2019-03-27T22:37:01.921Z,24.27
2019-03-27T22:42:04.019Z,20.97
2019-03-27T22:47:07.558Z,22.23
2019-03-27T22:52:09.621Z,20.73
2019-03-27T22:57:12.086Z,22.87
2019-03-27T23:02:14.385Z,23.20
2019-03-27T23:07:17.196Z,24.23
2019-03-27T23:12:19.273Z,22.90
2019-03-27T23:17:24.711Z,22.10
2019-03-27T23:22:26.715Z,19.30
2019-03-27T23:27:28.802Z,23.90
2019-03-27T23:32:30.889Z,21.17
2019-03-27T23:37:32.861Z,23.80
2019-03-27T23:42:34.844Z,21.53
2019-03-27T23:47:36.836Z,20.97
2019-03-27T23:52:44.073Z,23.60
2019-03-27T23:57:48.742Z,25.83
